PWSweather.com
Personal Weather Stations
Station Observations
KAZPHOEN90
RayThunderhill, Phoenix, AZ

RayThunderhillPhoenix, AZ

Lat: 33.312, Lon: -112.029

Elevation: 1260

Station Type: Davis Vantage VUE

Latest ConditionsUpdated 11:45:01 PM MST Monday, Sep 26, 2016
Currently Today's Max Today's Min Today's Average
Temperature 76.4°F24.7°C 89.3°F31.8°C 74.9°F23.8°C 81.2°F27.3°C
Dew Point 47.5°F8.6°C 54.9°F12.7°C 33.1°F0.6°C 47.8°F8.8°C
Winds 1.7 mph E2.7 kmh E 6.5 mph SSE10.5 kmh SSE - 1.4 mph 2.3 kmh
Wind Gusts 2.0 mph3.2 kmh 15.0 mph24.1 kmh - -
Humidity 36% 47% 15% 32%
Pressure 29.90 in1012.5 mb 29.96 in1014.6 mb 29.83 in1010.2 mb -
Hour Temp Dew Point Humidity Winds Wind Gusts Pressure Precip Precip Rate Daily Precip Total
11:45 PM 76.4°F24.7°C 47.5°F8.6°C 36% 1.7 mph E2.7 kmh E 2.0 mph3.2 kmh 29.90 in1012.5 mb - 0.00 in0.0 mm 0.00 in0.0 mm
11:30 PM 76.1°F24.5°C 47.2°F8.4°C 36% 2.1 mph NNE3.4 kmh NNE 5.0 mph8.0 kmh 29.90 in1012.5 mb - 0.00 in0.0 mm 0.00 in0.0 mm
11:15 PM 76.2°F24.6°C 47.3°F8.5°C 36% 1.6 mph ESE2.6 kmh ESE 5.0 mph8.0 kmh 29.90 in1012.5 mb - 0.00 in0.0 mm 0.00 in0.0 mm
11:00 PM 76.3°F24.6°C 47.4°F8.6°C 36% 0.9 mph ESE1.4 kmh ESE 1.0 mph1.6 kmh 29.90 in1012.5 mb - 0.00 in0.0 mm 0.00 in0.0 mm
10:45 PM 75.9°F24.4°C 47.7°F8.7°C 37% 0.7 mph NNE1.1 kmh NNE 3.0 mph4.8 kmh 29.90 in1012.5 mb - 0.00 in0.0 mm 0.00 in0.0 mm
10:30 PM 75.5°F24.2°C 48.1°F8.9°C 38% 1.4 mph E2.3 kmh E 3.0 mph4.8 kmh 29.90 in1012.5 mb - 0.00 in0.0 mm 0.00 in0.0 mm
10:15 PM 75.3°F24.1°C 49.3°F9.6°C 40% Calm Calm -- 29.89 in1012.2 mb - 0.00 in0.0 mm 0.00 in0.0 mm
10:00 PM 75.9°F24.4°C 49.1°F9.5°C 39% 0.3 mph ESE0.5 kmh ESE 1.0 mph1.6 kmh 29.90 in1012.5 mb - 0.00 in0.0 mm 0.00 in0.0 mm
09:45 PM 75.8°F24.3°C 49.1°F9.5°C 39% 0.5 mph NE0.8 kmh NE 1.0 mph1.6 kmh 29.90 in1012.5 mb - 0.00 in0.0 mm 0.00 in0.0 mm
09:30 PM 75.5°F24.2°C 49.5°F9.7°C 40% 0.6 mph SE1.0 kmh SE 1.0 mph1.6 kmh 29.90 in1012.5 mb - 0.00 in0.0 mm 0.00 in0.0 mm
09:15 PM 76.0°F24.4°C 49.2°F9.6°C 39% Calm Calm -- 29.89 in1012.2 mb - 0.00 in0.0 mm 0.00 in0.0 mm
09:00 PM 76.5°F24.7°C 49.0°F9.4°C 38% Calm Calm -- 29.88 in1011.9 mb - 0.00 in0.0 mm 0.00 in0.0 mm
08:45 PM 76.1°F24.5°C 50.0°F10.0°C 40% 0.2 mph N0.3 kmh N 3.0 mph4.8 kmh 29.88 in1011.9 mb - 0.00 in0.0 mm 0.00 in0.0 mm
08:30 PM 76.2°F24.6°C 50.8°F10.4°C 41% Calm Calm 1.0 mph1.6 kmh 29.88 in1011.9 mb - 0.00 in0.0 mm 0.00 in0.0 mm
08:15 PM 75.2°F24.0°C 51.8°F11.0°C 44% 0.4 mph NE0.6 kmh NE 1.0 mph1.6 kmh 29.88 in1011.9 mb - 0.00 in0.0 mm 0.00 in0.0 mm
08:00 PM 74.9°F23.8°C 53.3°F11.8°C 47% 0.1 mph SE0.2 kmh SE -- 29.87 in1011.5 mb - 0.00 in0.0 mm 0.00 in0.0 mm
07:45 PM 75.4°F24.1°C 53.8°F12.1°C 47% Calm Calm -- 29.86 in1011.2 mb - 0.00 in0.0 mm 0.00 in0.0 mm
07:30 PM 76.4°F24.7°C 53.5°F11.9°C 45% Calm Calm -- 29.86 in1011.2 mb - 0.00 in0.0 mm 0.00 in0.0 mm
07:15 PM 77.0°F25.0°C 53.4°F11.9°C 44% 0.2 mph SE0.3 kmh SE 1.0 mph1.6 kmh 29.86 in1011.2 mb - 0.00 in0.0 mm 0.00 in0.0 mm
07:00 PM 77.2°F25.1°C 53.0°F11.7°C 43% 2.0 mph SE3.2 kmh SE 3.0 mph4.8 kmh 29.86 in1011.2 mb - 0.00 in0.0 mm 0.00 in0.0 mm
06:45 PM 77.7°F25.4°C 53.4°F11.9°C 43% 1.2 mph SE1.9 kmh SE 1.0 mph1.6 kmh 29.86 in1011.2 mb - 0.00 in0.0 mm 0.00 in0.0 mm
06:30 PM 77.9°F25.5°C 53.0°F11.7°C 42% 0.8 mph E1.3 kmh E 2.0 mph3.2 kmh 29.86 in1011.2 mb - 0.00 in0.0 mm 0.00 in0.0 mm
06:15 PM 78.3°F25.7°C 53.3°F11.8°C 42% 2.2 mph SE3.5 kmh SE 5.0 mph8.0 kmh 29.86 in1011.2 mb - 0.00 in0.0 mm 0.00 in0.0 mm
06:00 PM 78.5°F25.8°C 54.1°F12.3°C 43% 2.3 mph SE3.7 kmh SE 6.0 mph9.7 kmh 29.86 in1011.2 mb - 0.00 in0.0 mm 0.00 in0.0 mm
05:45 PM 78.6°F25.9°C 54.2°F12.3°C 43% 2.5 mph ESE4.0 kmh ESE 6.0 mph9.7 kmh 29.86 in1011.2 mb - 0.00 in0.0 mm 0.00 in0.0 mm
05:30 PM 79.1°F26.2°C 54.1°F12.3°C 42% 4.0 mph ESE6.4 kmh ESE 8.0 mph12.9 kmh 29.86 in1011.2 mb - 0.00 in0.0 mm 0.00 in0.0 mm
05:15 PM 79.4°F26.3°C 53.0°F11.7°C 40% 3.8 mph ESE6.1 kmh ESE 9.0 mph14.5 kmh 29.86 in1011.2 mb - 0.00 in0.0 mm 0.00 in0.0 mm
05:00 PM 79.0°F26.1°C 53.3°F11.8°C 41% 6.5 mph SSE10.5 kmh SSE 9.0 mph14.5 kmh 29.86 in1011.2 mb - 0.00 in0.0 mm 0.00 in0.0 mm
04:45 PM 78.6°F25.9°C 54.9°F12.7°C 44% 1.6 mph SE2.6 kmh SE 4.0 mph6.4 kmh 29.86 in1011.2 mb - 0.00 in0.0 mm 0.00 in0.0 mm
04:30 PM 80.8°F27.1°C 53.6°F12.0°C 39% 3.9 mph E6.3 kmh E 7.0 mph11.3 kmh 29.86 in1011.2 mb - 0.00 in0.0 mm 0.00 in0.0 mm
04:15 PM 82.2°F27.9°C 51.0°F10.6°C 34% 2.3 mph ESE3.7 kmh ESE 3.0 mph4.8 kmh 29.86 in1011.2 mb - 0.00 in0.0 mm 0.00 in0.0 mm
04:00 PM 83.7°F28.7°C 50.7°F10.4°C 32% 4.5 mph E7.2 kmh E 8.0 mph12.9 kmh 29.87 in1011.5 mb - 0.00 in0.0 mm 0.00 in0.0 mm
03:45 PM 85.2°F29.6°C 50.3°F10.2°C 30% 4.0 mph SE6.4 kmh SE 8.0 mph12.9 kmh 29.87 in1011.5 mb - 0.00 in0.0 mm 0.00 in0.0 mm
03:30 PM 85.9°F29.9°C 50.0°F10.0°C 29% 5.0 mph E8.0 kmh E 9.0 mph14.5 kmh 29.87 in1011.5 mb - 0.00 in0.0 mm 0.00 in0.0 mm
03:15 PM 86.3°F30.2°C 49.4°F9.7°C 28% 4.9 mph SE7.9 kmh SE 15.0 mph24.1 kmh 29.88 in1011.9 mb - 0.00 in0.0 mm 0.00 in0.0 mm
03:00 PM 87.8°F31.0°C 48.6°F9.2°C 26% 3.4 mph SSE5.5 kmh SSE 9.0 mph14.5 kmh 29.88 in1011.9 mb - 0.00 in0.0 mm 0.00 in0.0 mm
02:45 PM 89.3°F31.8°C 47.8°F8.8°C 24% 4.9 mph E7.9 kmh E 11.0 mph17.7 kmh 29.88 in1011.9 mb - 0.00 in0.0 mm 0.00 in0.0 mm
02:30 PM 87.8°F31.0°C 48.6°F9.2°C 26% 4.8 mph NNE7.7 kmh NNE 9.0 mph14.5 kmh 29.88 in1011.9 mb - 0.00 in0.0 mm 0.00 in0.0 mm
02:15 PM 88.7°F31.5°C 51.4°F10.8°C 28% 2.6 mph SE4.2 kmh SE 8.0 mph12.9 kmh 29.88 in1011.9 mb - 0.00 in0.0 mm 0.00 in0.0 mm
02:00 PM 87.3°F30.7°C 50.2°F10.1°C 28% 1.1 mph E1.8 kmh E 2.0 mph3.2 kmh 29.89 in1012.2 mb - 0.00 in0.0 mm 0.00 in0.0 mm
01:45 PM 86.7°F30.4°C 49.7°F9.8°C 28% 2.8 mph ESE4.5 kmh ESE 4.0 mph6.4 kmh 29.90 in1012.5 mb - 0.00 in0.0 mm 0.00 in0.0 mm
01:30 PM 86.6°F30.3°C 48.6°F9.2°C 27% 3.3 mph SE5.3 kmh SE 5.0 mph8.0 kmh 29.89 in1012.2 mb - 0.00 in0.0 mm 0.00 in0.0 mm
01:15 PM 87.2°F30.7°C 48.1°F8.9°C 26% 3.9 mph SE6.3 kmh SE 5.0 mph8.0 kmh 29.90 in1012.5 mb - 0.00 in0.0 mm 0.00 in0.0 mm
01:00 PM 87.6°F30.9°C 48.5°F9.2°C 26% 3.4 mph SE5.5 kmh SE 8.0 mph12.9 kmh 29.91 in1012.9 mb - 0.00 in0.0 mm 0.00 in0.0 mm
12:45 PM 86.5°F30.3°C 48.5°F9.2°C 27% 2.1 mph E3.4 kmh E 5.0 mph8.0 kmh 29.92 in1013.2 mb - 0.00 in0.0 mm 0.00 in0.0 mm
12:30 PM 87.2°F30.7°C 49.1°F9.5°C 27% 3.5 mph ESE5.6 kmh ESE 5.0 mph8.0 kmh 29.93 in1013.5 mb - 0.00 in0.0 mm 0.00 in0.0 mm
12:15 PM 87.0°F30.6°C 49.0°F9.4°C 27% 0.8 mph ESE1.3 kmh ESE 2.0 mph3.2 kmh 29.93 in1013.5 mb - 0.00 in0.0 mm 0.00 in0.0 mm
12:00 PM 86.8°F30.4°C 49.7°F9.8°C 28% 1.8 mph ESE2.9 kmh ESE 3.0 mph4.8 kmh 29.93 in1013.5 mb - 0.00 in0.0 mm 0.00 in0.0 mm
11:45 AM 87.2°F30.7°C 50.1°F10.1°C 28% 2.1 mph E3.4 kmh E 3.0 mph4.8 kmh 29.94 in1013.9 mb - 0.00 in0.0 mm 0.00 in0.0 mm
11:30 AM 86.1°F30.1°C 50.1°F10.1°C 29% 3.3 mph SSE5.3 kmh SSE 10.0 mph16.1 kmh 29.94 in1013.9 mb - 0.00 in0.0 mm 0.00 in0.0 mm
11:15 AM 86.2°F30.1°C 49.3°F9.6°C 28% 5.0 mph SE8.0 kmh SE 9.0 mph14.5 kmh 29.95 in1014.2 mb - 0.00 in0.0 mm 0.00 in0.0 mm
11:00 AM 87.1°F30.6°C 49.1°F9.5°C 27% 4.1 mph SE6.6 kmh SE 8.0 mph12.9 kmh 29.95 in1014.2 mb - 0.00 in0.0 mm 0.00 in0.0 mm
10:45 AM 88.6°F31.4°C 49.4°F9.7°C 26% 1.9 mph SE3.1 kmh SE 6.0 mph9.7 kmh 29.96 in1014.6 mb - 0.00 in0.0 mm 0.00 in0.0 mm
10:30 AM 88.9°F31.6°C 49.6°F9.8°C 26% 3.3 mph SE5.3 kmh SE 6.0 mph9.7 kmh 29.96 in1014.6 mb - 0.00 in0.0 mm 0.00 in0.0 mm
10:15 AM 88.6°F31.4°C 50.4°F10.2°C 27% 3.1 mph E5.0 kmh E 4.0 mph6.4 kmh 29.96 in1014.6 mb - 0.00 in0.0 mm 0.00 in0.0 mm
10:00 AM 87.8°F31.0°C 50.6°F10.3°C 28% 2.2 mph ESE3.5 kmh ESE 5.0 mph8.0 kmh 29.96 in1014.6 mb - 0.00 in0.0 mm 0.00 in0.0 mm
09:45 AM 87.0°F30.6°C 51.8°F11.0°C 30% 0.7 mph ESE1.1 kmh ESE 3.0 mph4.8 kmh 29.96 in1014.6 mb - 0.00 in0.0 mm 0.00 in0.0 mm
09:30 AM 86.0°F30.0°C 51.9°F11.1°C 31% 1.1 mph SE1.8 kmh SE 2.0 mph3.2 kmh 29.96 in1014.6 mb - 0.00 in0.0 mm 0.00 in0.0 mm
09:15 AM 85.6°F29.8°C 51.5°F10.8°C 31% 0.7 mph SE1.1 kmh SE 1.0 mph1.6 kmh 29.96 in1014.6 mb - 0.00 in0.0 mm 0.00 in0.0 mm
09:00 AM 85.3°F29.6°C 51.3°F10.7°C 31% Calm Calm -- 29.96 in1014.6 mb - 0.00 in0.0 mm 0.00 in0.0 mm
08:45 AM 84.6°F29.2°C 51.5°F10.8°C 32% Calm Calm -- 29.95 in1014.2 mb - 0.00 in0.0 mm 0.00 in0.0 mm
08:30 AM 83.5°F28.6°C 50.5°F10.3°C 32% 0.2 mph SE0.3 kmh SE 1.0 mph1.6 kmh 29.95 in1014.2 mb - 0.00 in0.0 mm 0.00 in0.0 mm
08:15 AM 80.8°F27.1°C 50.6°F10.3°C 35% Calm Calm -- 29.95 in1014.2 mb - 0.00 in0.0 mm 0.00 in0.0 mm
08:00 AM 80.4°F26.9°C 51.7°F10.9°C 37% Calm Calm -- 29.95 in1014.2 mb - 0.00 in0.0 mm 0.00 in0.0 mm
07:45 AM 79.2°F26.2°C 51.4°F10.8°C 38% Calm Calm -- 29.95 in1014.2 mb - 0.00 in0.0 mm 0.00 in0.0 mm
07:30 AM 77.7°F25.4°C 52.8°F11.6°C 42% Calm Calm -- 29.94 in1013.9 mb - 0.00 in0.0 mm 0.00 in0.0 mm
07:15 AM 77.3°F25.2°C 51.1°F10.6°C 40% Calm Calm -- 29.94 in1013.9 mb - 0.00 in0.0 mm 0.00 in0.0 mm
07:00 AM 76.9°F24.9°C 50.1°F10.1°C 39% Calm Calm -- 29.94 in1013.9 mb - 0.00 in0.0 mm 0.00 in0.0 mm
06:45 AM 77.0°F25.0°C 48.8°F9.3°C 37% Calm Calm -- 29.93 in1013.5 mb - 0.00 in0.0 mm 0.00 in0.0 mm
06:30 AM 77.3°F25.2°C 49.0°F9.4°C 37% Calm Calm -- 29.93 in1013.5 mb - 0.00 in0.0 mm 0.00 in0.0 mm
06:15 AM 77.5°F25.3°C 48.4°F9.1°C 36% Calm Calm -- 29.93 in1013.5 mb - 0.00 in0.0 mm 0.00 in0.0 mm
06:00 AM 77.3°F25.2°C 47.5°F8.6°C 35% Calm Calm -- 29.92 in1013.2 mb - 0.00 in0.0 mm 0.00 in0.0 mm
05:45 AM 77.1°F25.1°C 47.3°F8.5°C 35% Calm Calm -- 29.92 in1013.2 mb - 0.00 in0.0 mm 0.00 in0.0 mm
05:30 AM 77.0°F25.0°C 46.5°F8.1°C 34% Calm Calm -- 29.91 in1012.9 mb - 0.00 in0.0 mm 0.00 in0.0 mm
05:15 AM 77.6°F25.3°C 46.2°F7.9°C 33% Calm Calm -- 29.91 in1012.9 mb - 0.00 in0.0 mm 0.00 in0.0 mm
05:00 AM 78.0°F25.6°C 44.9°F7.2°C 31% Calm Calm -- 29.90 in1012.5 mb - 0.00 in0.0 mm 0.00 in0.0 mm
04:45 AM 78.4°F25.8°C 43.5°F6.4°C 29% Calm Calm -- 29.89 in1012.2 mb - 0.00 in0.0 mm 0.00 in0.0 mm
04:30 AM 78.2°F25.7°C 43.3°F6.3°C 29% Calm Calm -- 29.89 in1012.2 mb - 0.00 in0.0 mm 0.00 in0.0 mm
04:15 AM 78.3°F25.7°C 42.5°F5.8°C 28% Calm Calm -- 29.88 in1011.9 mb - 0.00 in0.0 mm 0.00 in0.0 mm
04:00 AM 78.4°F25.8°C 41.6°F5.3°C 27% Calm Calm -- 29.87 in1011.5 mb - 0.00 in0.0 mm 0.00 in0.0 mm
03:45 AM 78.9°F26.1°C 40.1°F4.5°C 25% Calm Calm -- 29.87 in1011.5 mb - 0.00 in0.0 mm 0.00 in0.0 mm
03:30 AM 79.7°F26.5°C 40.8°F4.9°C 25% 0.2 mph WSW0.3 kmh WSW -- 29.87 in1011.5 mb - 0.00 in0.0 mm 0.00 in0.0 mm
03:15 AM 80.8°F27.1°C 41.7°F5.4°C 25% Calm Calm -- 29.87 in1011.5 mb - 0.00 in0.0 mm 0.00 in0.0 mm
03:00 AM 80.8°F27.1°C 40.6°F4.8°C 24% 0.5 mph NNW0.8 kmh NNW 1.0 mph1.6 kmh 29.87 in1011.5 mb - 0.00 in0.0 mm 0.00 in0.0 mm
02:45 AM 80.8°F27.1°C 39.5°F4.2°C 23% Calm Calm -- 29.87 in1011.5 mb - 0.00 in0.0 mm 0.00 in0.0 mm
02:30 AM 80.0°F26.7°C 38.9°F3.8°C 23% Calm Calm -- 29.88 in1011.9 mb - 0.00 in0.0 mm 0.00 in0.0 mm
02:15 AM 79.7°F26.5°C 37.5°F3.1°C 22% Calm Calm -- 29.88 in1011.9 mb - 0.00 in0.0 mm 0.00 in0.0 mm
02:00 AM 80.2°F26.8°C 39.1°F3.9°C 23% Calm Calm -- 29.88 in1011.9 mb - 0.00 in0.0 mm 0.00 in0.0 mm
01:45 AM 81.2°F27.3°C 37.5°F3.1°C 21% Calm Calm -- 29.88 in1011.9 mb - 0.00 in0.0 mm 0.00 in0.0 mm
01:30 AM 83.6°F28.7°C 35.6°F2.0°C 18% 1.3 mph SE2.1 kmh SE 4.0 mph6.4 kmh 29.86 in1011.2 mb - 0.00 in0.0 mm 0.00 in0.0 mm
01:15 AM 84.2°F29.0°C 34.7°F1.5°C 17% 1.1 mph N1.8 kmh N 5.0 mph8.0 kmh 29.85 in1010.8 mb - 0.00 in0.0 mm 0.00 in0.0 mm
01:00 AM 83.6°F28.7°C 34.2°F1.2°C 17% 1.8 mph N2.9 kmh N 2.0 mph3.2 kmh 29.84 in1010.5 mb - 0.00 in0.0 mm 0.00 in0.0 mm
12:45 AM 83.9°F28.8°C 34.4°F1.3°C 17% 0.6 mph N1.0 kmh N 3.0 mph4.8 kmh 29.84 in1010.5 mb - 0.00 in0.0 mm 0.00 in0.0 mm
12:30 AM 84.3°F29.1°C 34.7°F1.5°C 17% 0.7 mph NNW1.1 kmh NNW 2.0 mph3.2 kmh 29.84 in1010.5 mb - 0.00 in0.0 mm 0.00 in0.0 mm
12:15 AM 85.4°F29.7°C 34.1°F1.2°C 16% 0.4 mph NE0.6 kmh NE 2.0 mph3.2 kmh 29.84 in1010.5 mb - 0.00 in0.0 mm 0.00 in0.0 mm
12:00 AM 86.2°F30.1°C 33.1°F0.6°C 15% 0.7 mph N1.1 kmh N 4.0 mph6.4 kmh 29.83 in1010.2 mb - 0.00 in0.0 mm 0.00 in0.0 mm